Time;durP1;ratioP1;P1;durP2;ratioP2;P2;SDS_P1;SDS_P2;PMS_P1;PMS_P2;Temp;Humidity;BMP_temperature;BMP_pressure;BME280_temperature;BME280_humidity;BME280_pressure;Samples;Min_cycle;Max_cycle;Signal;HPM_P1;HPM_P2
2021/09/15 00:00:53;;;;;;;18.10;8.55;;;20.30;99.90;;;;;;4215513;28;20182;-94
2021/09/15 00:02:53;;;;;;;13.88;8.15;;;20.30;99.90;;;;;;4215624;28;20251;-95
2021/09/15 00:04:54;;;;;;;12.20;6.57;;;20.30;99.90;;;;;;4198769;28;20202;-93
2021/09/15 00:06:55;;;;;;;13.90;7.47;;;20.20;99.90;;;;;;4198715;28;20195;-94
2021/09/15 00:08:55;;;;;;;12.68;7.38;;;20.20;99.90;;;;;;4198764;28;20175;-93
2021/09/15 00:10:56;;;;;;;16.33;7.75;;;20.20;99.90;;;;;;4215421;28;20200;-94
2021/09/15 00:12:57;;;;;;;15.02;7.78;;;20.10;99.90;;;;;;4198620;28;20543;-94
2021/09/15 00:14:58;;;;;;;18.17;7.80;;;20.10;99.90;;;;;;4198589;28;20180;-92
2021/09/15 00:16:59;;;;;;;13.73;7.78;;;20.20;99.90;;;;;;4215270;28;20397;-95
2021/09/15 00:18:59;;;;;;;16.13;7.95;;;20.30;99.90;;;;;;4198414;28;20668;-90
2021/09/15 00:21:00;;;;;;;17.40;8.77;;;20.40;99.90;;;;;;4198470;28;20179;-91
2021/09/15 00:23:01;;;;;;;17.17;9.50;;;20.50;99.90;;;;;;4198634;28;20249;-90
2021/09/15 00:25:03;;;;;;;21.35;10.73;;;20.60;99.90;;;;;;4198363;28;20212;-90
2021/09/15 00:27:04;;;;;;;18.45;10.10;;;20.60;99.90;;;;;;4214993;28;20726;-90
2021/09/15 00:29:04;;;;;;;23.80;10.63;;;20.60;99.90;;;;;;4215062;28;20179;-93
2021/09/15 00:31:05;;;;;;;23.02;10.13;;;20.60;99.90;;;;;;4198186;28;20171;-91
2021/09/15 00:33:06;;;;;;;25.58;12.35;;;20.70;99.90;;;;;;4198509;28;20544;-94
2021/09/15 00:35:09;;;;;;;21.48;11.48;;;20.70;99.90;;;;;;4198156;28;20178;-94
2021/09/15 00:37:09;;;;;;;28.50;12.95;;;20.70;99.90;;;;;;4198156;28;20202;-93
2021/09/15 00:39:10;;;;;;;28.80;12.93;;;20.70;99.90;;;;;;4198662;28;20167;-93
2021/09/15 00:41:11;;;;;;;23.52;12.70;;;20.80;99.90;;;;;;4198298;28;20192;-91
2021/09/15 00:43:12;;;;;;;25.63;12.45;;;20.80;99.90;;;;;;4198118;28;20658;-90
2021/09/15 00:45:14;;;;;;;18.85;10.90;;;20.80;99.90;;;;;;4197936;28;20234;-90
2021/09/15 00:47:15;;;;;;;26.10;12.43;;;20.80;99.90;;;;;;4198052;28;20174;-90
2021/09/15 00:49:15;;;;;;;26.30;13.27;;;20.90;99.90;;;;;;4198224;28;20265;-91
2021/09/15 00:51:19;;;;;;;26.27;12.70;;;20.90;99.90;;;;;;4198183;28;20186;-89
2021/09/15 00:53:20;;;;;;;31.73;14.20;;;21.00;99.90;;;;;;4198151;28;20197;-91
2021/09/15 00:55:22;;;;;;;28.75;13.85;;;21.00;99.90;;;;;;4214669;28;20158;-90
2021/09/15 00:57:23;;;;;;;27.15;13.13;;;20.90;99.90;;;;;;4198147;28;20217;-90
2021/09/15 00:59:25;;;;;;;24.65;12.57;;;20.90;99.90;;;;;;4198104;28;20262;-94
2021/09/15 01:01:28;;;;;;;20.80;11.35;;;20.80;99.90;;;;;;4214670;28;20174;-90
2021/09/15 01:03:32;;;;;;;26.88;10.98;;;20.80;99.90;;;;;;4198239;28;20225;-94
2021/09/15 01:05:34;;;;;;;22.60;11.50;;;20.80;99.90;;;;;;4214511;28;20209;-93
2021/09/15 01:07:37;;;;;;;20.23;10.10;;;20.80;99.90;;;;;;4197889;28;20534;-93
2021/09/15 01:09:39;;;;;;;26.13;11.10;;;20.80;99.90;;;;;;4197919;28;20635;-94
2021/09/15 01:11:45;;;;;;;23.60;11.10;;;20.80;99.90;;;;;;4198304;28;20167;-92
2021/09/15 01:14:10;;;;;;;21.35;10.38;;;20.80;99.90;;;;;;4214620;28;20178;-90
2021/09/15 01:16:58;;;;;;;20.63;10.75;;;20.80;99.90;;;;;;4214039;28;20182;-91
2021/09/15 01:19:23;;;;;;;21.25;10.93;;;20.80;99.90;;;;;;4193939;28;20257;-93
2021/09/15 01:21:48;;;;;;;23.38;10.80;;;20.80;99.90;;;;;;4195629;28;20174;-92
2021/09/15 01:24:03;;;;;;;20.52;10.68;;;20.80;99.90;;;;;;4199636;28;20170;-93
2021/09/15 01:26:33;;;;;;;20.00;10.88;;;20.80;99.90;;;;;;4209186;28;20195;-93
2021/09/15 01:28:58;;;;;;;20.65;10.32;;;20.80;99.90;;;;;;4200939;28;20711;-89
2021/09/15 01:30:59;;;;;;;22.17;11.23;;;20.80;99.90;;;;;;4212205;22;20277;-86
2021/09/15 01:33:01;;;;;;;17.83;10.02;;;20.80;99.90;;;;;;4164061;28;20180;-85
2021/09/15 01:35:02;;;;;;;18.92;9.88;;;20.80;99.90;;;;;;4181131;28;20206;-86
2021/09/15 01:37:09;;;;;;;19.63;10.18;;;20.80;99.90;;;;;;4164040;28;20548;-86
2021/09/15 01:39:14;;;;;;;17.38;10.50;;;20.60;99.90;;;;;;4181185;28;20292;-86
2021/09/15 01:41:15;;;;;;;22.52;10.73;;;20.70;99.90;;;;;;4164333;28;20176;-86
2021/09/15 01:43:16;;;;;;;20.20;11.35;;;20.70;99.90;;;;;;4165148;28;20168;-86
2021/09/15 01:45:18;;;;;;;25.92;11.93;;;20.80;99.90;;;;;;4148592;28;20700;-85
2021/09/15 01:47:19;;;;;;;22.05;11.32;;;20.70;99.90;;;;;;4165222;28;20195;-86
2021/09/15 01:49:19;;;;;;;27.70;9.68;;;20.70;99.90;;;;;;4165855;28;20176;-86
2021/09/15 01:51:20;;;;;;;20.65;11.00;;;20.60;99.90;;;;;;4164066;28;20214;-84
2021/09/15 01:53:21;;;;;;;17.27;10.90;;;20.60;99.90;;;;;;4163933;28;20632;-86
2021/09/15 01:55:28;;;;;;;19.27;11.57;;;20.50;99.90;;;;;;4147630;28;20169;-85
2021/09/15 01:57:48;;;;;;;23.50;11.98;;;20.50;99.90;;;;;;4167786;28;20202;-86
2021/09/15 02:00:08;;;;;;;25.52;12.70;;;20.40;99.90;;;;;;4168868;28;20218;-86
2021/09/15 02:02:38;;;;;;;22.23;11.70;;;20.30;99.90;;;;;;4154738;28;20175;-85
2021/09/15 02:04:45;;;;;;;19.27;11.68;;;20.10;99.90;;;;;;4152471;28;20275;-86
2021/09/15 02:07:04;;;;;;;22.50;10.77;;;20.00;99.90;;;;;;4153136;28;20196;-86
2021/09/15 02:09:21;;;;;;;26.05;11.57;;;20.10;99.90;;;;;;4167689;28;20172;-85
2021/09/15 02:11:32;;;;;;;20.45;11.75;;;20.20;99.90;;;;;;4167177;28;20707;-85
2021/09/15 02:13:32;;;;;;;20.08;10.50;;;20.30;99.90;;;;;;4167099;28;20606;-86
2021/09/15 02:15:34;;;;;;;20.20;10.50;;;20.40;99.90;;;;;;4151747;28;20197;-86
2021/09/15 02:17:35;;;;;;;18.33;10.95;;;20.40;99.90;;;;;;4166710;28;20174;-86
2021/09/15 02:19:41;;;;;;;21.02;10.60;;;20.50;99.90;;;;;;4183688;28;20171;-86
2021/09/15 02:21:49;;;;;;;19.42;10.60;;;20.60;99.90;;;;;;4167777;28;20227;-86
2021/09/15 02:24:18;;;;;;;19.02;11.20;;;20.60;99.90;;;;;;4154486;28;20200;-86
2021/09/15 02:26:34;;;;;;;19.15;10.60;;;20.50;99.90;;;;;;4183318;28;20275;-86
2021/09/15 02:28:38;;;;;;;18.60;10.43;;;20.50;99.90;;;;;;4150767;28;20228;-85
2021/09/15 02:31:14;;;;;;;19.42;9.52;;;20.50;99.90;;;;;;4150668;28;20196;-86
2021/09/15 02:33:32;;;;;;;16.35;9.05;;;20.50;99.90;;;;;;4152701;28;20792;-86
2021/09/15 02:35:36;;;;;;;15.75;9.20;;;20.50;99.90;;;;;;4150778;28;20312;-85
2021/09/15 02:37:47;;;;;;;16.73;9.43;;;20.50;99.90;;;;;;4151550;28;20219;-85
2021/09/15 02:40:07;;;;;;;15.52;9.05;;;20.60;99.90;;;;;;4181126;28;20202;-85
2021/09/15 02:42:28;;;;;;;21.65;9.25;;;20.60;99.90;;;;;;4166607;28;20167;-85
2021/09/15 02:44:51;;;;;;;15.02;9.75;;;20.60;99.90;;;;;;4166628;28;20743;-86
2021/09/15 02:46:57;;;;;;;15.68;9.00;;;20.60;99.90;;;;;;4166488;28;20226;-85
2021/09/15 02:49:17;;;;;;;17.00;9.98;;;20.60;99.90;;;;;;4137050;28;20246;-87
2021/09/15 02:51:37;;;;;;;19.75;10.48;;;20.40;99.90;;;;;;4166564;28;20172;-85
2021/09/15 02:53:43;;;;;;;17.58;9.60;;;20.60;99.90;;;;;;4150742;28;20738;-86
2021/09/15 02:56:04;;;;;;;19.50;10.32;;;20.50;99.90;;;;;;4183064;28;20197;-86
2021/09/15 02:58:30;;;;;;;22.10;11.18;;;20.50;99.90;;;;;;4159193;28;20184;-86
2021/09/15 03:00:51;;;;;;;19.55;10.73;;;20.50;99.90;;;;;;4165984;28;20176;-86
2021/09/15 03:03:06;;;;;;;29.10;11.57;;;20.60;99.90;;;;;;4169171;28;20175;-86
2021/09/15 03:05:25;;;;;;;25.38;12.98;;;20.60;99.90;;;;;;4167580;28;20282;-86
2021/09/15 03:07:46;;;;;;;27.88;13.38;;;20.10;99.90;;;;;;4162852;28;20207;-91
2021/09/15 03:09:47;;;;;;;32.67;15.20;;;19.90;99.90;;;;;;4182806;28;20674;-86
2021/09/15 03:11:48;;;;;;;28.25;13.73;;;19.70;99.90;;;;;;4150589;28;20180;-86
2021/09/15 03:13:49;;;;;;;39.88;15.30;;;19.60;99.90;;;;;;4150189;28;20177;-86
2021/09/15 03:15:53;;;;;;;29.00;14.95;;;19.50;99.90;;;;;;4151140;28;20226;-85
2021/09/15 03:17:53;;;;;;;34.97;15.15;;;19.30;99.90;;;;;;4149794;28;20633;-85
2021/09/15 03:19:54;;;;;;;33.15;16.80;;;19.30;99.90;;;;;;4149656;28;20256;-85
2021/09/15 03:21:55;;;;;;;36.00;17.58;;;19.30;99.90;;;;;;4166006;28;20554;-86
2021/09/15 03:23:57;;;;;;;32.40;17.67;;;19.30;99.90;;;;;;4165991;28;20172;-86
2021/09/15 03:25:58;;;;;;;35.72;17.88;;;19.30;99.90;;;;;;4150250;28;20299;-85
2021/09/15 03:27:59;;;;;;;42.42;19.23;;;19.30;99.90;;;;;;4165923;28;20226;-85
2021/09/15 03:30:00;;;;;;;31.30;15.38;;;19.40;99.90;;;;;;4149619;28;20581;-86
2021/09/15 03:32:01;;;;;;;34.05;15.80;;;19.60;99.90;;;;;;4165866;28;20683;-85
2021/09/15 03:34:03;;;;;;;46.55;19.77;;;19.80;99.90;;;;;;4149501;28;20234;-86
2021/09/15 03:36:04;;;;;;;47.47;20.27;;;19.90;99.90;;;;;;4165742;28;20189;-86
2021/09/15 03:38:07;;;;;;;45.20;19.65;;;19.90;99.90;;;;;;4149676;28;20676;-86
2021/09/15 03:40:09;;;;;;;32.42;16.50;;;19.90;99.90;;;;;;4166080;28;20636;-85
2021/09/15 03:42:10;;;;;;;37.90;17.30;;;19.90;99.90;;;;;;4165666;28;20580;-86
2021/09/15 03:44:11;;;;;;;31.38;14.32;;;20.10;99.90;;;;;;4165827;28;20628;-86
2021/09/15 03:46:12;;;;;;;31.00;14.75;;;20.20;99.90;;;;;;4165339;28;20202;-86
2021/09/15 03:48:15;;;;;;;25.67;14.15;;;20.30;99.90;;;;;;4149574;28;20231;-86
2021/09/15 03:50:15;;;;;;;29.75;13.18;;;20.40;99.90;;;;;;4182352;28;20270;-86
2021/09/15 03:52:19;;;;;;;25.90;12.88;;;20.40;99.90;;;;;;4149862;28;20176;-86
2021/09/15 03:54:20;;;;;;;27.30;13.00;;;20.30;99.90;;;;;;4165696;28;20168;-86
2021/09/15 03:56:21;;;;;;;34.00;12.88;;;20.40;99.90;;;;;;4181968;28;20262;-86
2021/09/15 03:58:22;;;;;;;37.13;14.25;;;20.40;99.90;;;;;;4149210;28;20177;-86
2021/09/15 04:00:23;;;;;;;40.63;17.23;;;20.40;99.90;;;;;;4167299;28;20183;-87
2021/09/15 04:02:31;;;;;;;42.10;18.75;;;20.40;99.90;;;;;;4165931;28;20180;-87
2021/09/15 04:04:31;;;;;;;43.40;21.75;;;20.30;99.90;;;;;;4149706;28;20314;-86
2021/09/15 04:06:32;;;;;;;49.13;21.10;;;20.40;99.90;;;;;;4165593;28;20687;-86
2021/09/15 04:08:33;;;;;;;44.33;22.58;;;20.40;99.90;;;;;;4182173;28;20176;-86
2021/09/15 04:10:35;;;;;;;46.90;21.17;;;20.40;99.90;;;;;;4165589;28;20314;-89
2021/09/15 04:12:36;;;;;;;36.60;19.15;;;20.40;99.90;;;;;;4165679;28;20180;-87
2021/09/15 04:14:38;;;;;;;31.00;18.60;;;20.50;99.90;;;;;;4149148;28;20201;-86
2021/09/15 04:16:39;;;;;;;56.55;23.02;;;20.60;99.90;;;;;;4148714;28;20204;-88
2021/09/15 04:18:40;;;;;;;64.25;25.90;;;20.60;99.90;;;;;;4148292;28;20172;-87
2021/09/15 04:20:41;;;;;;;61.97;27.27;;;20.70;99.90;;;;;;4149089;28;20180;-87
2021/09/15 04:22:43;;;;;;;56.13;26.77;;;20.80;99.90;;;;;;4182163;28;20168;-87
2021/09/15 04:32:06;;;;;;;70.22;30.20;;;20.60;99.90;;;;;;4131798;28;20384;-88
2021/09/15 04:34:07;;;;;;;62.15;30.55;;;20.50;99.90;;;;;;4116792;28;20179;-86
2021/09/15 04:36:25;;;;;;;66.70;30.08;;;20.50;99.90;;;;;;4121053;28;20244;-87
2021/09/15 04:38:25;;;;;;;76.97;32.55;;;20.40;99.90;;;;;;4148745;28;20173;-86
2021/09/15 04:40:27;;;;;;;75.97;31.67;;;20.50;99.90;;;;;;4164807;28;20191;-87
2021/09/15 04:42:28;;;;;;;86.15;30.77;;;20.50;99.90;;;;;;4181647;28;20172;-85
2021/09/15 04:44:29;;;;;;;55.58;26.45;;;20.40;99.90;;;;;;4164848;28;20307;-87
2021/09/15 04:46:30;;;;;;;49.00;25.38;;;20.30;99.90;;;;;;4148463;28;20255;-86
2021/09/15 04:48:31;;;;;;;54.20;26.35;;;20.40;99.90;;;;;;4149068;28;20168;-87
2021/09/15 04:50:32;;;;;;;53.13;27.08;;;20.50;99.90;;;;;;4148812;28;20279;-86
2021/09/15 04:52:32;;;;;;;46.22;25.42;;;20.40;99.90;;;;;;4164851;28;20168;-86
2021/09/15 04:54:33;;;;;;;41.58;26.15;;;20.30;99.90;;;;;;4165075;28;20251;-86
2021/09/15 04:56:34;;;;;;;46.15;27.70;;;20.10;99.90;;;;;;4181149;28;20245;-86
2021/09/15 04:58:35;;;;;;;49.97;29.55;;;20.00;99.90;;;;;;4165093;28;20255;-86
2021/09/15 05:00:37;;;;;;;61.67;32.35;;;20.00;99.90;;;;;;4181526;28;20180;-87
2021/09/15 05:02:43;;;;;;;60.17;32.63;;;20.10;99.90;;;;;;4165389;28;20180;-86
2021/09/15 05:05:00;;;;;;;57.17;32.95;;;20.10;99.90;;;;;;4165550;28;20208;-89
2021/09/15 05:07:13;;;;;;;60.72;33.05;;;20.20;99.90;;;;;;4165048;28;20683;-87
2021/09/15 05:09:14;;;;;;;62.90;33.97;;;20.10;99.90;;;;;;4165954;28;20178;-86
2021/09/15 05:11:20;;;;;;;53.15;31.35;;;20.10;99.90;;;;;;4149396;28;20577;-86
2021/09/15 05:13:21;;;;;;;61.38;33.15;;;19.90;99.90;;;;;;4164702;28;20242;-86
2021/09/15 05:15:24;;;;;;;61.90;34.25;;;20.00;99.90;;;;;;4164815;28;20172;-86
2021/09/15 05:17:25;;;;;;;61.78;33.88;;;19.90;99.90;;;;;;4148535;28;20177;-86
2021/09/15 05:19:26;;;;;;;65.43;34.42;;;19.80;99.90;;;;;;4165169;28;20175;-88
2021/09/15 05:21:27;;;;;;;60.88;36.95;;;19.90;99.90;;;;;;4148207;28;20544;-86
2021/09/15 05:23:28;;;;;;;69.63;38.20;;;19.70;99.90;;;;;;4148355;28;20267;-86
2021/09/15 05:25:35;;;;;;;72.13;39.45;;;19.80;99.90;;;;;;4149253;28;20207;-90
2021/09/15 05:27:37;;;;;;;81.05;39.80;;;19.90;99.90;;;;;;4164912;28;20568;-91
2021/09/15 05:29:38;;;;;;;77.95;39.38;;;19.90;99.90;;;;;;4148309;28;20172;-92
2021/09/15 05:31:39;;;;;;;66.85;37.65;;;20.00;99.90;;;;;;4148331;28;20713;-92
2021/09/15 05:33:40;;;;;;;74.00;36.95;;;20.10;99.90;;;;;;4148524;28;20177;-92
2021/09/15 05:35:40;;;;;;;81.15;39.25;;;20.20;99.90;;;;;;4181020;28;20202;-92
2021/09/15 05:37:42;;;;;;;63.85;37.22;;;20.20;99.90;;;;;;4148504;28;20180;-91
2021/09/15 05:39:43;;;;;;;77.93;39.53;;;20.10;99.90;;;;;;4148262;28;20165;-92
2021/09/15 05:41:44;;;;;;;78.32;41.58;;;20.00;99.90;;;;;;4148532;28;20188;-92
2021/09/15 05:43:45;;;;;;;89.00;44.05;;;20.10;99.90;;;;;;4148623;28;20263;-94
2021/09/15 05:45:49;;;;;;;96.00;45.88;;;20.40;99.90;;;;;;4148262;28;20212;-91
2021/09/15 05:47:50;;;;;;;98.00;45.22;;;20.40;99.90;;;;;;4164374;28;20247;-91
2021/09/15 05:49:51;;;;;;;97.45;46.65;;;20.20;99.90;;;;;;4164245;28;20176;-92
2021/09/15 05:51:52;;;;;;;86.32;44.53;;;20.10;99.90;;;;;;4148400;28;20675;-91
2021/09/15 05:53:54;;;;;;;94.85;45.35;;;20.00;99.90;;;;;;4147910;28;20177;-92
2021/09/15 05:55:55;;;;;;;101.78;45.75;;;20.00;99.90;;;;;;4148130;28;20192;-93
2021/09/15 05:57:56;;;;;;;92.05;46.05;;;20.00;99.90;;;;;;4164592;28;20210;-92
2021/09/15 05:59:57;;;;;;;97.05;45.05;;;20.00;99.90;;;;;;4147999;28;20679;-93
2021/09/15 06:01:57;;;;;;;90.22;45.95;;;20.10;99.90;;;;;;4148028;28;20173;-92
2021/09/15 06:03:58;;;;;;;106.28;49.58;;;20.20;99.90;;;;;;4148063;28;20171;-92
2021/09/15 06:06:14;;;;;;;94.85;47.05;;;20.10;99.90;;;;;;4164428;28;20203;-92
2021/09/15 06:08:16;;;;;;;100.57;46.42;;;20.10;99.90;;;;;;4164707;28;20176;-93
2021/09/15 06:10:17;;;;;;;91.60;46.88;;;20.10;99.90;;;;;;4164454;28;20180;-91
2021/09/15 06:12:19;;;;;;;103.72;45.70;;;20.20;99.90;;;;;;4180663;28;20571;-93
2021/09/15 06:14:20;;;;;;;106.55;46.17;;;20.10;99.90;;;;;;4148226;28;20169;-92
2021/09/15 06:16:22;;;;;;;92.70;48.63;;;20.10;99.90;;;;;;4148013;28;20193;-92
2021/09/15 06:18:23;;;;;;;100.57;49.10;;;20.10;99.90;;;;;;4164661;28;20172;-91
2021/09/15 06:20:44;;;;;;;104.63;47.80;;;20.10;99.90;;;;;;4164313;28;20184;-91
2021/09/15 06:22:50;;;;;;;113.72;50.35;;;20.20;99.90;;;;;;4165358;28;20243;-91
2021/09/15 06:25:06;;;;;;;121.10;51.25;;;20.30;99.90;;;;;;4149673;28;20203;-91
2021/09/15 06:27:09;;;;;;;108.35;51.42;;;20.40;99.90;;;;;;4164180;28;20196;-91
2021/09/15 06:29:10;;;;;;;120.20;51.72;;;20.40;99.90;;;;;;4147996;28;20629;-91
2021/09/15 06:31:11;;;;;;;118.72;51.13;;;20.40;99.90;;;;;;4180387;28;20287;-91
2021/09/15 06:33:12;;;;;;;101.55;50.03;;;20.40;99.90;;;;;;4147798;28;20165;-92
2021/09/15 06:35:13;;;;;;;100.63;50.30;;;20.20;99.90;;;;;;4147897;28;20176;-93
2021/09/15 06:37:15;;;;;;;106.93;52.58;;;20.20;99.90;;;;;;4148027;28;20173;-91
2021/09/15 06:39:15;;;;;;;102.72;52.88;;;20.20;99.90;;;;;;4164295;28;20598;-93
2021/09/15 06:41:16;;;;;;;92.97;50.67;;;20.00;99.90;;;;;;4164226;28;20226;-91
2021/09/15 06:43:17;;;;;;;108.95;51.97;;;20.00;99.90;;;;;;4166267;28;20208;-92
2021/09/15 06:45:18;;;;;;;110.25;54.13;;;20.10;99.90;;;;;;4150794;28;20676;-91
2021/09/15 06:47:19;;;;;;;109.43;53.78;;;20.10;99.90;;;;;;4150794;28;20211;-92
2021/09/15 06:49:20;;;;;;;104.00;52.47;;;20.10;99.90;;;;;;4167376;28;20177;-92
2021/09/15 06:51:21;;;;;;;111.13;52.80;;;20.10;99.90;;;;;;4167057;28;20176;-92
2021/09/15 06:53:23;;;;;;;106.25;52.65;;;20.10;99.90;;;;;;4167291;28;20569;-92
2021/09/15 06:55:24;;;;;;;100.70;53.85;;;20.10;99.90;;;;;;4166984;28;20171;-92
2021/09/15 06:57:26;;;;;;;100.07;50.05;;;20.10;99.90;;;;;;4150681;28;20173;-93
2021/09/15 06:59:30;;;;;;;98.55;51.38;;;20.20;99.90;;;;;;4150876;28;20264;-92
2021/09/15 07:01:31;;;;;;;94.90;50.22;;;20.20;99.90;;;;;;4150509;28;20642;-92
2021/09/15 07:03:32;;;;;;;94.50;51.03;;;20.20;99.90;;;;;;4150692;28;20177;-93
2021/09/15 07:05:32;;;;;;;96.35;49.22;;;20.10;99.90;;;;;;4150536;28;20209;-93
2021/09/15 07:07:34;;;;;;;98.95;51.65;;;20.20;99.90;;;;;;4166845;28;20172;-93
2021/09/15 07:09:34;;;;;;;95.85;50.83;;;20.30;99.90;;;;;;4150369;28;20203;-92
2021/09/15 07:11:36;;;;;;;88.78;48.90;;;20.40;99.90;;;;;;4150454;28;20181;-92
2021/09/15 07:13:36;;;;;;;85.65;49.75;;;20.60;99.90;;;;;;4166962;28;20267;-94
2021/09/15 07:15:37;;;;;;;84.40;48.00;;;20.60;99.90;;;;;;4150256;28;20200;-93
2021/09/15 07:17:38;;;;;;;85.65;50.03;;;20.60;99.90;;;;;;4150356;28;20192;-91
2021/09/15 07:19:39;;;;;;;84.15;48.30;;;20.60;99.90;;;;;;4183193;28;20172;-90
2021/09/15 07:21:39;;;;;;;83.53;46.83;;;20.70;99.90;;;;;;4150142;28;20227;-90
2021/09/15 07:23:40;;;;;;;81.05;46.67;;;20.80;99.90;;;;;;4149921;28;20188;-93
2021/09/15 07:25:41;;;;;;;82.13;46.33;;;20.70;99.90;;;;;;4166372;28;20216;-93
2021/09/15 07:27:42;;;;;;;80.88;46.60;;;20.70;99.90;;;;;;4166474;28;20176;-91
2021/09/15 07:29:43;;;;;;;76.75;46.30;;;20.80;99.90;;;;;;4150407;28;20196;-92
2021/09/15 07:31:43;;;;;;;78.93;44.67;;;20.90;99.90;;;;;;4150419;28;20188;-92
2021/09/15 07:33:44;;;;;;;78.65;45.40;;;21.00;99.90;;;;;;4150211;28;20169;-92
2021/09/15 07:35:45;;;;;;;73.50;44.90;;;21.10;99.90;;;;;;4149906;28;20291;-92
2021/09/15 07:37:46;;;;;;;81.20;45.40;;;21.20;99.90;;;;;;4166140;28;20179;-92
2021/09/15 07:39:47;;;;;;;71.22;43.15;;;21.10;99.90;;;;;;4150116;28;20180;-93
2021/09/15 07:41:50;;;;;;;75.00;45.47;;;21.20;99.90;;;;;;4150000;28;20157;-91
2021/09/15 07:43:51;;;;;;;71.60;43.92;;;21.00;99.90;;;;;;4149847;28;20239;-93
2021/09/15 07:45:52;;;;;;;75.60;43.15;;;21.00;99.90;;;;;;4149601;28;20215;-93
2021/09/15 07:47:52;;;;;;;75.53;44.97;;;21.10;99.90;;;;;;4166047;28;20173;-92
2021/09/15 07:49:53;;;;;;;70.43;43.25;;;21.40;99.90;;;;;;4149581;28;20176;-93
2021/09/15 07:51:54;;;;;;;70.32;42.72;;;21.10;99.90;;;;;;4149563;28;20898;-91
2021/09/15 07:53:55;;;;;;;69.03;42.20;;;21.10;99.90;;;;;;4149670;28;20184;-92
2021/09/15 07:55:56;;;;;;;66.70;42.13;;;20.80;99.90;;;;;;4149694;28;20196;-92
2021/09/15 07:57:57;;;;;;;76.32;42.60;;;20.70;99.90;;;;;;4165912;28;20314;-92
2021/09/15 07:59:57;;;;;;;66.65;41.35;;;20.50;99.90;;;;;;4166086;28;20180;-92
2021/09/15 08:01:59;;;;;;;68.30;42.00;;;20.60;99.90;;;;;;4149439;28;20252;-92
2021/09/15 08:04:00;;;;;;;66.97;40.97;;;20.70;99.90;;;;;;4149703;28;20173;-92
2021/09/15 08:06:04;;;;;;;69.45;40.95;;;20.80;99.90;;;;;;4149121;28;20213;-92
2021/09/15 08:08:05;;;;;;;64.53;39.60;;;20.80;99.90;;;;;;4165668;28;20319;-92
2021/09/15 08:10:06;;;;;;;69.55;40.90;;;20.50;99.90;;;;;;4165744;28;20179;-92
2021/09/15 08:12:07;;;;;;;67.85;41.15;;;20.50;99.90;;;;;;4165683;28;20168;-91
2021/09/15 08:14:08;;;;;;;65.55;40.22;;;20.60;99.90;;;;;;4165481;28;20234;-90
2021/09/15 08:16:09;;;;;;;67.07;39.13;;;20.50;99.90;;;;;;4149570;28;20205;-94
2021/09/15 08:18:10;;;;;;;71.13;39.38;;;20.70;99.90;;;;;;4149346;28;20169;-92
2021/09/15 08:20:11;;;;;;;60.58;37.85;;;20.80;99.90;;;;;;4165600;28;20223;-92
2021/09/15 08:22:12;;;;;;;56.35;35.65;;;21.10;99.90;;;;;;4149188;28;20166;-90
2021/09/15 08:24:13;;;;;;;60.00;36.55;;;21.10;99.90;;;;;;4148950;28;20244;-92
2021/09/15 08:26:17;;;;;;;56.03;33.55;;;21.10;99.90;;;;;;4149393;28;20211;-91
2021/09/15 08:28:18;;;;;;;61.85;32.88;;;20.90;99.90;;;;;;4149170;28;20177;-91
2021/09/15 08:30:19;;;;;;;56.25;33.33;;;20.80;99.90;;;;;;4149323;28;20255;-92
2021/09/15 08:32:20;;;;;;;57.53;34.83;;;20.50;99.90;;;;;;4165483;28;20180;-92
2021/09/15 08:34:20;;;;;;;52.88;33.78;;;20.50;99.90;;;;;;4165635;28;20172;-92
2021/09/15 08:36:21;;;;;;;63.40;37.50;;;20.30;99.90;;;;;;4148909;28;20220;-92
2021/09/15 08:38:22;;;;;;;68.18;36.28;;;20.10;99.90;;;;;;4148924;28;20200;-92
2021/09/15 08:40:23;;;;;;;59.72;37.63;;;20.10;99.90;;;;;;4149247;28;20169;-93
2021/09/15 08:42:24;;;;;;;59.38;37.38;;;20.30;99.90;;;;;;4149026;28;20173;-91
2021/09/15 08:44:25;;;;;;;63.80;38.75;;;20.30;99.90;;;;;;4149054;28;20229;-92
2021/09/15 08:46:28;;;;;;;61.97;37.35;;;20.50;99.90;;;;;;4148802;28;20196;-92
2021/09/15 08:48:35;;;;;;;64.60;37.80;;;20.50;99.90;;;;;;4148954;28;20176;-92
2021/09/15 08:50:36;;;;;;;62.42;37.97;;;20.60;99.90;;;;;;4149109;28;20180;-92
2021/09/15 08:52:37;;;;;;;59.22;37.40;;;20.70;99.90;;;;;;4148887;28;20247;-91
2021/09/15 08:54:37;;;;;;;62.08;38.35;;;20.60;99.90;;;;;;4164942;28;20199;-92
2021/09/15 08:56:38;;;;;;;56.10;36.30;;;20.70;99.90;;;;;;4165069;28;20190;-92
2021/09/15 08:58:39;;;;;;;59.47;35.95;;;20.80;99.90;;;;;;4164996;28;20179;-93
2021/09/15 09:00:41;;;;;;;47.75;33.28;;;20.90;99.90;;;;;;4165035;28;20183;-91
2021/09/15 09:02:45;;;;;;;45.97;30.02;;;20.80;99.90;;;;;;4148732;28;20252;-92
2021/09/15 09:05:03;;;;;;;41.05;29.63;;;20.60;99.90;;;;;;4164632;28;20750;-92
2021/09/15 09:07:10;;;;;;;46.25;31.23;;;20.30;99.90;;;;;;4164744;28;20303;-92
2021/09/15 09:09:11;;;;;;;50.50;32.05;;;20.20;99.90;;;;;;4148927;28;20172;-90
2021/09/15 09:11:14;;;;;;;48.97;30.38;;;20.40;99.90;;;;;;4165011;28;20306;-91
2021/09/15 09:13:18;;;;;;;45.50;28.90;;;20.50;99.90;;;;;;4148802;28;20264;-92
2021/09/15 09:15:24;;;;;;;40.30;27.45;;;20.00;99.90;;;;;;4148718;28;20168;-92
2021/09/15 09:17:34;;;;;;;46.70;29.52;;;20.00;99.90;;;;;;4181106;28;20179;-91
2021/09/15 09:19:35;;;;;;;36.40;27.33;;;19.90;99.90;;;;;;4164855;28;20171;-92
2021/09/15 09:21:39;;;;;;;39.28;27.70;;;20.10;99.90;;;;;;4148417;28;20612;-92
2021/09/15 09:23:40;;;;;;;35.45;23.75;;;20.30;99.90;;;;;;4164920;28;20167;-91
2021/09/15 09:25:56;;;;;;;37.72;23.63;;;20.50;99.90;;;;;;4148499;28;20303;-92
2021/09/15 09:27:58;;;;;;;30.77;23.35;;;20.70;99.90;;;;;;4181092;28;20171;-90
2021/09/15 09:29:59;;;;;;;29.13;21.70;;;21.10;99.90;;;;;;4164545;28;20263;-90
2021/09/15 09:32:15;;;;;;;29.38;20.15;;;21.30;99.90;;;;;;4149142;28;20165;-92
2021/09/15 09:34:19;;;;;;;24.85;18.40;;;21.50;99.90;;;;;;4164770;28;20232;-92
2021/09/15 09:36:20;;;;;;;24.63;17.77;;;21.10;99.90;;;;;;4148069;28;20185;-92
2021/09/15 09:38:32;;;;;;;34.25;17.92;;;20.80;99.90;;;;;;4164555;28;20552;-91
2021/09/15 09:40:33;;;;;;;22.05;17.10;;;20.80;99.90;;;;;;4164585;28;20187;-91
2021/09/15 09:42:38;;;;;;;22.67;17.45;;;20.80;99.90;;;;;;4148154;28;20176;-93
2021/09/15 09:44:43;;;;;;;23.13;16.80;;;21.00;99.90;;;;;;4164946;28;20202;-91
2021/09/15 09:46:43;;;;;;;25.85;16.17;;;21.30;99.90;;;;;;4148208;28;20193;-92
2021/09/15 09:48:55;;;;;;;23.10;16.58;;;21.50;99.90;;;;;;4164594;28;20164;-92
2021/09/15 09:50:56;;;;;;;22.35;16.30;;;21.50;99.90;;;;;;4148249;28;20176;-92
2021/09/15 09:53:02;;;;;;;21.65;15.02;;;21.50;99.90;;;;;;4164501;28;20173;-92
2021/09/15 09:55:04;;;;;;;21.70;15.23;;;21.30;99.90;;;;;;4164419;28;20218;-92
2021/09/15 09:57:05;;;;;;;21.98;15.27;;;21.40;99.90;;;;;;4180584;28;20183;-92
2021/09/15 09:59:06;;;;;;;21.00;15.00;;;21.40;99.90;;;;;;4164294;28;20248;-91
2021/09/15 10:01:09;;;;;;;17.48;13.75;;;21.20;99.90;;;;;;4148409;28;20176;-93
2021/09/15 10:03:10;;;;;;;19.88;14.30;;;20.90;99.90;;;;;;4148314;28;20211;-91
2021/09/15 10:05:13;;;;;;;21.38;14.07;;;21.10;99.90;;;;;;4148126;28;20204;-91
2021/09/15 10:07:17;;;;;;;23.85;12.10;;;21.20;99.90;;;;;;4147742;28;20180;-91
2021/09/15 10:09:17;;;;;;;15.20;11.50;;;21.50;99.90;;;;;;4181000;28;20202;-90
2021/09/15 10:11:20;;;;;;;14.02;9.00;;;21.70;99.90;;;;;;4148223;28;20177;-91
2021/09/15 10:13:21;;;;;;;14.07;9.32;;;21.80;99.90;;;;;;4148298;28;20203;-91
2021/09/15 10:15:22;;;;;;;14.18;9.75;;;21.70;99.90;;;;;;4164365;28;20621;-91
2021/09/15 10:17:28;;;;;;;18.33;8.82;;;21.50;99.90;;;;;;4149425;28;20165;-92
2021/09/15 10:19:32;;;;;;;12.30;8.80;;;21.40;99.90;;;;;;4167453;28;20180;-91
2021/09/15 10:21:35;;;;;;;12.88;7.40;;;21.50;99.90;;;;;;4151103;28;20169;-91
2021/09/15 10:23:36;;;;;;;13.02;8.65;;;21.30;99.90;;;;;;4167594;28;20683;-91
2021/09/15 10:25:38;;;;;;;12.50;8.13;;;21.20;99.90;;;;;;4151097;28;20208;-90
2021/09/15 10:27:57;;;;;;;10.43;7.95;;;21.20;99.90;;;;;;4151108;28;20268;-91
2021/09/15 10:30:09;;;;;;;11.77;7.97;;;21.50;99.90;;;;;;4150921;28;20191;-90
2021/09/15 10:32:11;;;;;;;11.65;7.47;;;21.90;99.90;;;;;;4155407;28;20176;-92
2021/09/15 10:34:40;;;;;;;11.50;7.32;;;22.40;99.90;;;;;;4151049;28;20180;-91
2021/09/15 10:36:41;;;;;;;12.20;7.07;;;22.60;99.90;;;;;;4167383;28;20263;-90
2021/09/15 10:39:02;;;;;;;17.05;7.50;;;22.70;99.90;;;;;;4167657;28;20180;-92